sensor_id;sensor_type;location;lat;lon;timestamp;P1;durP1;ratioP1;P2;durP2;ratioP2
79751;SDS011;69234;47.446;21.636;2023-04-15T00:00:11;8.90;;;8.90;;
79751;SDS011;69234;47.446;21.636;2023-04-15T00:00:47;8.40;;;8.40;;
79751;SDS011;69234;47.446;21.636;2023-04-15T00:01:17;8.53;;;8.53;;
79751;SDS011;69234;47.446;21.636;2023-04-15T00:01:48;8.47;;;8.47;;
79751;SDS011;69234;47.446;21.636;2023-04-15T00:02:19;8.50;;;8.50;;
79751;SDS011;69234;47.446;21.636;2023-04-15T00:02:50;8.73;;;8.73;;
79751;SDS011;69234;47.446;21.636;2023-04-15T00:03:20;8.80;;;8.80;;
79751;SDS011;69234;47.446;21.636;2023-04-15T00:03:52;8.73;;;8.73;;
79751;SDS011;69234;47.446;21.636;2023-04-15T00:04:24;8.33;;;8.33;;
79751;SDS011;69234;47.446;21.636;2023-04-15T00:04:56;7.93;;;7.93;;
79751;SDS011;69234;47.446;21.636;2023-04-15T00:05:28;8.07;;;8.07;;
79751;SDS011;69234;47.446;21.636;2023-04-15T00:05:59;8.87;;;8.87;;
79751;SDS011;69234;47.446;21.636;2023-04-15T00:06:30;8.40;;;8.33;;
79751;SDS011;69234;47.446;21.636;2023-04-15T00:07:01;8.53;;;8.37;;
79751;SDS011;69234;47.446;21.636;2023-04-15T00:07:32;9.20;;;9.13;;
79751;SDS011;69234;47.446;21.636;2023-04-15T00:08:03;9.40;;;9.37;;
79751;SDS011;69234;47.446;21.636;2023-04-15T00:08:34;9.37;;;9.20;;
79751;SDS011;69234;47.446;21.636;2023-04-15T00:09:05;9.20;;;9.17;;
79751;SDS011;69234;47.446;21.636;2023-04-15T00:09:36;8.67;;;8.43;;
79751;SDS011;69234;47.446;21.636;2023-04-15T00:10:07;9.23;;;8.97;;
79751;SDS011;69234;47.446;21.636;2023-04-15T00:10:38;8.67;;;8.50;;
79751;SDS011;69234;47.446;21.636;2023-04-15T00:11:09;8.97;;;8.90;;
79751;SDS011;69234;47.446;21.636;2023-04-15T00:11:39;8.73;;;8.73;;
79751;SDS011;69234;47.446;21.636;2023-04-15T00:12:10;8.67;;;8.67;;
79751;SDS011;69234;47.446;21.636;2023-04-15T00:12:41;9.00;;;9.00;;
79751;SDS011;69234;47.446;21.636;2023-04-15T00:13:12;8.83;;;8.83;;
79751;SDS011;69234;47.446;21.636;2023-04-15T00:13:44;9.30;;;9.30;;
79751;SDS011;69234;47.446;21.636;2023-04-15T00:14:15;9.40;;;9.37;;
79751;SDS011;69234;47.446;21.636;2023-04-15T00:14:46;9.37;;;9.37;;
79751;SDS011;69234;47.446;21.636;2023-04-15T00:15:17;9.20;;;9.20;;
79751;SDS011;69234;47.446;21.636;2023-04-15T00:15:48;9.83;;;9.80;;
79751;SDS011;69234;47.446;21.636;2023-04-15T00:16:19;10.47;;;10.43;;
79751;SDS011;69234;47.446;21.636;2023-04-15T00:16:50;10.20;;;10.20;;
79751;SDS011;69234;47.446;21.636;2023-04-15T00:17:25;10.17;;;10.13;;
79751;SDS011;69234;47.446;21.636;2023-04-15T00:17:55;10.27;;;10.23;;
79751;SDS011;69234;47.446;21.636;2023-04-15T00:18:26;9.97;;;9.83;;
79751;SDS011;69234;47.446;21.636;2023-04-15T00:18:58;10.57;;;10.43;;
79751;SDS011;69234;47.446;21.636;2023-04-15T00:19:29;10.23;;;10.23;;
79751;SDS011;69234;47.446;21.636;2023-04-15T00:20:01;9.80;;;9.80;;
79751;SDS011;69234;47.446;21.636;2023-04-15T00:20:33;9.60;;;9.60;;
79751;SDS011;69234;47.446;21.636;2023-04-15T00:21:04;9.97;;;9.87;;
79751;SDS011;69234;47.446;21.636;2023-04-15T00:21:35;9.50;;;9.47;;
79751;SDS011;69234;47.446;21.636;2023-04-15T00:22:06;9.70;;;9.63;;
79751;SDS011;69234;47.446;21.636;2023-04-15T00:22:37;9.17;;;9.17;;
79751;SDS011;69234;47.446;21.636;2023-04-15T00:23:07;9.17;;;9.17;;
79751;SDS011;69234;47.446;21.636;2023-04-15T00:23:38;9.43;;;9.43;;
79751;SDS011;69234;47.446;21.636;2023-04-15T00:24:09;9.83;;;9.83;;
79751;SDS011;69234;47.446;21.636;2023-04-15T00:24:40;9.60;;;9.60;;
79751;SDS011;69234;47.446;21.636;2023-04-15T00:25:12;9.27;;;9.27;;
79751;SDS011;69234;47.446;21.636;2023-04-15T00:25:42;9.37;;;9.37;;
79751;SDS011;69234;47.446;21.636;2023-04-15T00:26:13;9.20;;;9.20;;
79751;SDS011;69234;47.446;21.636;2023-04-15T00:26:44;8.57;;;8.57;;
79751;SDS011;69234;47.446;21.636;2023-04-15T00:27:15;8.90;;;8.90;;
79751;SDS011;69234;47.446;21.636;2023-04-15T00:27:46;9.60;;;9.60;;
79751;SDS011;69234;47.446;21.636;2023-04-15T00:28:18;9.40;;;9.40;;
79751;SDS011;69234;47.446;21.636;2023-04-15T00:28:49;9.07;;;9.07;;
79751;SDS011;69234;47.446;21.636;2023-04-15T00:29:19;9.93;;;9.93;;
79751;SDS011;69234;47.446;21.636;2023-04-15T00:29:50;9.93;;;9.93;;
79751;SDS011;69234;47.446;21.636;2023-04-15T00:30:21;9.73;;;9.73;;
79751;SDS011;69234;47.446;21.636;2023-04-15T00:30:53;9.70;;;9.70;;
79751;SDS011;69234;47.446;21.636;2023-04-15T00:31:23;9.10;;;9.10;;
79751;SDS011;69234;47.446;21.636;2023-04-15T00:31:55;9.30;;;9.30;;
79751;SDS011;69234;47.446;21.636;2023-04-15T00:32:28;9.53;;;9.53;;
79751;SDS011;69234;47.446;21.636;2023-04-15T00:33:00;9.57;;;9.57;;
79751;SDS011;69234;47.446;21.636;2023-04-15T00:33:34;9.83;;;9.83;;
79751;SDS011;69234;47.446;21.636;2023-04-15T00:34:05;10.17;;;10.17;;
79751;SDS011;69234;47.446;21.636;2023-04-15T00:34:36;10.17;;;10.00;;
79751;SDS011;69234;47.446;21.636;2023-04-15T00:35:07;9.27;;;9.23;;
79751;SDS011;69234;47.446;21.636;2023-04-15T00:35:38;9.47;;;9.47;;
79751;SDS011;69234;47.446;21.636;2023-04-15T00:36:09;9.43;;;9.40;;
79751;SDS011;69234;47.446;21.636;2023-04-15T00:36:41;9.23;;;9.23;;
79751;SDS011;69234;47.446;21.636;2023-04-15T00:37:12;9.47;;;9.47;;
79751;SDS011;69234;47.446;21.636;2023-04-15T00:37:43;9.87;;;9.87;;
79751;SDS011;69234;47.446;21.636;2023-04-15T00:38:13;9.13;;;9.13;;
79751;SDS011;69234;47.446;21.636;2023-04-15T00:38:45;8.67;;;8.67;;
79751;SDS011;69234;47.446;21.636;2023-04-15T00:39:16;9.23;;;9.23;;
79751;SDS011;69234;47.446;21.636;2023-04-15T00:39:47;9.57;;;9.57;;
79751;SDS011;69234;47.446;21.636;2023-04-15T00:40:20;8.83;;;8.83;;
79751;SDS011;69234;47.446;21.636;2023-04-15T00:40:53;9.07;;;8.97;;
79751;SDS011;69234;47.446;21.636;2023-04-15T00:41:25;9.93;;;9.67;;
79751;SDS011;69234;47.446;21.636;2023-04-15T00:41:56;9.83;;;9.63;;
79751;SDS011;69234;47.446;21.636;2023-04-15T00:42:27;9.93;;;9.77;;
79751;SDS011;69234;47.446;21.636;2023-04-15T00:42:58;10.13;;;10.10;;
79751;SDS011;69234;47.446;21.636;2023-04-15T00:43:29;9.77;;;9.77;;
79751;SDS011;69234;47.446;21.636;2023-04-15T00:44:00;9.93;;;9.93;;
79751;SDS011;69234;47.446;21.636;2023-04-15T00:44:31;9.67;;;9.67;;
79751;SDS011;69234;47.446;21.636;2023-04-15T00:45:02;8.97;;;8.97;;
79751;SDS011;69234;47.446;21.636;2023-04-15T00:45:34;9.00;;;9.00;;
79751;SDS011;69234;47.446;21.636;2023-04-15T00:46:05;9.20;;;9.20;;
79751;SDS011;69234;47.446;21.636;2023-04-15T00:46:37;9.33;;;9.33;;
79751;SDS011;69234;47.446;21.636;2023-04-15T00:47:08;10.10;;;10.10;;
79751;SDS011;69234;47.446;21.636;2023-04-15T00:47:42;9.63;;;9.50;;
79751;SDS011;69234;47.446;21.636;2023-04-15T00:48:13;9.83;;;9.80;;
79751;SDS011;69234;47.446;21.636;2023-04-15T00:48:45;9.30;;;9.30;;
79751;SDS011;69234;47.446;21.636;2023-04-15T00:49:16;9.73;;;9.73;;
79751;SDS011;69234;47.446;21.636;2023-04-15T00:49:48;10.20;;;10.20;;
79751;SDS011;69234;47.446;21.636;2023-04-15T00:50:19;9.33;;;9.33;;
79751;SDS011;69234;47.446;21.636;2023-04-15T00:50:49;9.07;;;9.07;;
79751;SDS011;69234;47.446;21.636;2023-04-15T00:51:21;9.10;;;9.10;;
79751;SDS011;69234;47.446;21.636;2023-04-15T00:51:52;9.43;;;9.43;;
79751;SDS011;69234;47.446;21.636;2023-04-15T00:52:22;9.67;;;9.57;;
79751;SDS011;69234;47.446;21.636;2023-04-15T00:52:54;9.53;;;9.33;;
79751;SDS011;69234;47.446;21.636;2023-04-15T00:53:25;9.40;;;9.40;;
79751;SDS011;69234;47.446;21.636;2023-04-15T00:53:56;9.03;;;9.03;;
79751;SDS011;69234;47.446;21.636;2023-04-15T00:54:26;9.23;;;9.23;;
79751;SDS011;69234;47.446;21.636;2023-04-15T00:54:57;9.27;;;9.27;;
79751;SDS011;69234;47.446;21.636;2023-04-15T00:55:29;8.87;;;8.87;;
79751;SDS011;69234;47.446;21.636;2023-04-15T00:56:00;9.47;;;9.47;;
79751;SDS011;69234;47.446;21.636;2023-04-15T00:56:33;8.90;;;8.90;;
79751;SDS011;69234;47.446;21.636;2023-04-15T00:57:07;9.27;;;9.27;;
79751;SDS011;69234;47.446;21.636;2023-04-15T00:57:38;9.60;;;9.60;;
79751;SDS011;69234;47.446;21.636;2023-04-15T00:58:10;9.17;;;9.17;;
79751;SDS011;69234;47.446;21.636;2023-04-15T00:58:41;9.67;;;9.63;;
79751;SDS011;69234;47.446;21.636;2023-04-15T00:59:12;10.13;;;10.13;;
79751;SDS011;69234;47.446;21.636;2023-04-15T00:59:44;10.07;;;9.87;;
79751;SDS011;69234;47.446;21.636;2023-04-15T01:00:16;9.77;;;9.67;;
79751;SDS011;69234;47.446;21.636;2023-04-15T01:00:48;9.77;;;9.77;;
79751;SDS011;69234;47.446;21.636;2023-04-15T01:01:23;9.93;;;9.93;;
79751;SDS011;69234;47.446;21.636;2023-04-15T01:01:55;10.10;;;10.10;;
79751;SDS011;69234;47.446;21.636;2023-04-15T01:02:26;9.90;;;9.90;;
79751;SDS011;69234;47.446;21.636;2023-04-15T01:02:57;9.50;;;9.50;;
79751;SDS011;69234;47.446;21.636;2023-04-15T01:03:28;9.43;;;9.43;;
79751;SDS011;69234;47.446;21.636;2023-04-15T01:03:59;9.47;;;9.47;;
79751;SDS011;69234;47.446;21.636;2023-04-15T01:04:30;9.53;;;9.53;;
79751;SDS011;69234;47.446;21.636;2023-04-15T01:05:02;9.70;;;9.67;;
79751;SDS011;69234;47.446;21.636;2023-04-15T01:05:33;9.87;;;9.87;;
79751;SDS011;69234;47.446;21.636;2023-04-15T01:06:05;9.20;;;9.20;;
79751;SDS011;69234;47.446;21.636;2023-04-15T01:06:37;9.43;;;9.43;;
79751;SDS011;69234;47.446;21.636;2023-04-15T01:07:08;9.23;;;9.23;;
79751;SDS011;69234;47.446;21.636;2023-04-15T01:07:38;9.43;;;9.33;;
79751;SDS011;69234;47.446;21.636;2023-04-15T01:08:10;9.47;;;9.40;;
79751;SDS011;69234;47.446;21.636;2023-04-15T01:08:41;8.70;;;8.63;;
79751;SDS011;69234;47.446;21.636;2023-04-15T01:09:12;8.37;;;8.33;;
79751;SDS011;69234;47.446;21.636;2023-04-15T01:09:43;8.60;;;8.60;;
79751;SDS011;69234;47.446;21.636;2023-04-15T01:10:14;8.77;;;8.77;;
79751;SDS011;69234;47.446;21.636;2023-04-15T01:10:46;8.90;;;8.90;;
79751;SDS011;69234;47.446;21.636;2023-04-15T01:11:17;9.07;;;9.07;;
79751;SDS011;69234;47.446;21.636;2023-04-15T01:11:48;8.87;;;8.87;;
79751;SDS011;69234;47.446;21.636;2023-04-15T01:12:19;9.37;;;9.17;;
79751;SDS011;69234;47.446;21.636;2023-04-15T01:12:50;9.23;;;9.00;;
79751;SDS011;69234;47.446;21.636;2023-04-15T01:13:22;8.90;;;8.87;;
79751;SDS011;69234;47.446;21.636;2023-04-15T01:13:54;8.63;;;8.63;;
79751;SDS011;69234;47.446;21.636;2023-04-15T01:14:28;8.60;;;8.60;;
79751;SDS011;69234;47.446;21.636;2023-04-15T01:14:59;8.87;;;8.87;;
79751;SDS011;69234;47.446;21.636;2023-04-15T01:15:31;9.07;;;9.07;;
79751;SDS011;69234;47.446;21.636;2023-04-15T01:16:02;8.83;;;8.83;;
79751;SDS011;69234;47.446;21.636;2023-04-15T01:16:32;8.70;;;8.70;;
79751;SDS011;69234;47.446;21.636;2023-04-15T01:17:03;9.07;;;9.07;;
79751;SDS011;69234;47.446;21.636;2023-04-15T01:17:34;8.93;;;8.93;;
79751;SDS011;69234;47.446;21.636;2023-04-15T01:18:05;9.40;;;9.40;;
79751;SDS011;69234;47.446;21.636;2023-04-15T01:18:36;8.67;;;8.67;;
79751;SDS011;69234;47.446;21.636;2023-04-15T01:19:09;9.17;;;9.13;;
79751;SDS011;69234;47.446;21.636;2023-04-15T01:19:41;8.80;;;8.80;;
79751;SDS011;69234;47.446;21.636;2023-04-15T01:20:12;9.07;;;9.07;;
79751;SDS011;69234;47.446;21.636;2023-04-15T01:20:45;9.23;;;9.23;;
79751;SDS011;69234;47.446;21.636;2023-04-15T01:21:15;9.03;;;9.03;;
79751;SDS011;69234;47.446;21.636;2023-04-15T01:21:47;9.00;;;9.00;;
79751;SDS011;69234;47.446;21.636;2023-04-15T01:22:18;8.77;;;8.77;;
79751;SDS011;69234;47.446;21.636;2023-04-15T01:22:48;8.93;;;8.93;;
79751;SDS011;69234;47.446;21.636;2023-04-15T01:23:20;8.97;;;8.97;;
79751;SDS011;69234;47.446;21.636;2023-04-15T01:23:54;9.23;;;9.23;;
79751;SDS011;69234;47.446;21.636;2023-04-15T01:24:27;9.20;;;9.20;;
79751;SDS011;69234;47.446;21.636;2023-04-15T01:25:04;9.37;;;9.37;;
79751;SDS011;69234;47.446;21.636;2023-04-15T01:25:41;10.17;;;9.90;;
79751;SDS011;69234;47.446;21.636;2023-04-15T01:26:13;10.40;;;10.20;;
79751;SDS011;69234;47.446;21.636;2023-04-15T01:26:45;10.47;;;10.20;;
79751;SDS011;69234;47.446;21.636;2023-04-15T01:27:18;10.97;;;10.60;;
79751;SDS011;69234;47.446;21.636;2023-04-15T01:27:50;10.67;;;10.37;;
79751;SDS011;69234;47.446;21.636;2023-04-15T01:28:22;10.80;;;10.50;;
79751;SDS011;69234;47.446;21.636;2023-04-15T01:28:52;11.40;;;11.07;;
79751;SDS011;69234;47.446;21.636;2023-04-15T01:29:24;11.73;;;11.47;;
79751;SDS011;69234;47.446;21.636;2023-04-15T01:29:55;11.70;;;11.47;;
79751;SDS011;69234;47.446;21.636;2023-04-15T01:30:25;11.73;;;11.43;;
79751;SDS011;69234;47.446;21.636;2023-04-15T01:31:50;10.00;;;9.77;;
79751;SDS011;69234;47.446;21.636;2023-04-15T01:32:24;10.37;;;10.27;;
79751;SDS011;69234;47.446;21.636;2023-04-15T01:32:56;10.00;;;9.93;;
79751;SDS011;69234;47.446;21.636;2023-04-15T01:33:26;9.93;;;9.93;;
79751;SDS011;69234;47.446;21.636;2023-04-15T01:33:57;9.87;;;9.87;;
79751;SDS011;69234;47.446;21.636;2023-04-15T01:34:28;9.27;;;9.27;;
79751;SDS011;69234;47.446;21.636;2023-04-15T01:34:59;9.80;;;9.80;;
79751;SDS011;69234;47.446;21.636;2023-04-15T01:35:30;9.93;;;9.93;;
79751;SDS011;69234;47.446;21.636;2023-04-15T01:36:01;9.43;;;9.43;;
79751;SDS011;69234;47.446;21.636;2023-04-15T01:36:33;9.30;;;9.30;;
79751;SDS011;69234;47.446;21.636;2023-04-15T01:37:03;9.40;;;9.40;;
79751;SDS011;69234;47.446;21.636;2023-04-15T01:37:34;9.37;;;9.37;;
79751;SDS011;69234;47.446;21.636;2023-04-15T01:38:06;9.00;;;9.00;;
79751;SDS011;69234;47.446;21.636;2023-04-15T01:38:41;10.30;;;10.30;;
79751;SDS011;69234;47.446;21.636;2023-04-15T01:39:12;10.10;;;10.07;;
79751;SDS011;69234;47.446;21.636;2023-04-15T01:39:43;10.00;;;10.00;;
79751;SDS011;69234;47.446;21.636;2023-04-15T01:40:14;10.20;;;10.20;;
79751;SDS011;69234;47.446;21.636;2023-04-15T01:40:45;11.90;;;11.90;;
79751;SDS011;69234;47.446;21.636;2023-04-15T01:41:16;12.50;;;12.50;;
79751;SDS011;69234;47.446;21.636;2023-04-15T01:41:55;15.67;;;15.67;;
79751;SDS011;69234;47.446;21.636;2023-04-15T01:42:27;16.07;;;15.80;;
79751;SDS011;69234;47.446;21.636;2023-04-15T01:42:58;17.20;;;16.90;;
79751;SDS011;69234;47.446;21.636;2023-04-15T01:43:30;16.93;;;16.63;;
79751;SDS011;69234;47.446;21.636;2023-04-15T01:44:01;14.87;;;14.60;;
79751;SDS011;69234;47.446;21.636;2023-04-15T01:44:32;13.20;;;13.00;;
79751;SDS011;69234;47.446;21.636;2023-04-15T01:45:03;12.83;;;12.60;;
79751;SDS011;69234;47.446;21.636;2023-04-15T01:45:34;13.30;;;13.17;;
79751;SDS011;69234;47.446;21.636;2023-04-15T01:46:07;13.07;;;13.00;;
79751;SDS011;69234;47.446;21.636;2023-04-15T01:46:38;12.83;;;12.63;;
79751;SDS011;69234;47.446;21.636;2023-04-15T01:47:09;12.10;;;12.00;;
79751;SDS011;69234;47.446;21.636;2023-04-15T01:47:39;11.53;;;11.50;;
79751;SDS011;69234;47.446;21.636;2023-04-15T01:48:10;10.90;;;10.90;;
79751;SDS011;69234;47.446;21.636;2023-04-15T01:48:41;10.87;;;10.80;;
79751;SDS011;69234;47.446;21.636;2023-04-15T01:49:12;10.00;;;9.90;;
79751;SDS011;69234;47.446;21.636;2023-04-15T01:49:42;10.03;;;9.90;;
79751;SDS011;69234;47.446;21.636;2023-04-15T01:50:13;9.90;;;9.73;;
79751;SDS011;69234;47.446;21.636;2023-04-15T01:50:44;9.03;;;9.00;;
79751;SDS011;69234;47.446;21.636;2023-04-15T01:51:15;9.00;;;9.00;;
79751;SDS011;69234;47.446;21.636;2023-04-15T01:51:46;8.80;;;8.80;;
79751;SDS011;69234;47.446;21.636;2023-04-15T01:52:17;8.93;;;8.93;;
79751;SDS011;69234;47.446;21.636;2023-04-15T01:52:48;9.07;;;9.07;;
79751;SDS011;69234;47.446;21.636;2023-04-15T01:53:19;9.10;;;9.03;;
79751;SDS011;69234;47.446;21.636;2023-04-15T01:53:50;9.30;;;9.20;;
79751;SDS011;69234;47.446;21.636;2023-04-15T01:54:21;8.07;;;8.07;;
79751;SDS011;69234;47.446;21.636;2023-04-15T01:54:52;8.37;;;8.37;;
79751;SDS011;69234;47.446;21.636;2023-04-15T01:55:22;9.10;;;9.07;;
79751;SDS011;69234;47.446;21.636;2023-04-15T01:55:53;9.13;;;9.13;;
79751;SDS011;69234;47.446;21.636;2023-04-15T01:56:24;9.07;;;9.07;;
79751;SDS011;69234;47.446;21.636;2023-04-15T01:56:55;8.63;;;8.63;;
79751;SDS011;69234;47.446;21.636;2023-04-15T01:57:26;8.20;;;8.20;;
79751;SDS011;69234;47.446;21.636;2023-04-15T01:57:57;8.10;;;8.10;;
79751;SDS011;69234;47.446;21.636;2023-04-15T01:58:27;8.93;;;8.93;;
79751;SDS011;69234;47.446;21.636;2023-04-15T01:58:58;9.17;;;9.17;;
79751;SDS011;69234;47.446;21.636;2023-04-15T01:59:30;8.90;;;8.90;;
79751;SDS011;69234;47.446;21.636;2023-04-15T02:00:02;8.83;;;8.83;;
79751;SDS011;69234;47.446;21.636;2023-04-15T02:00:43;8.50;;;8.50;;
79751;SDS011;69234;47.446;21.636;2023-04-15T02:01:14;8.37;;;8.37;;
79751;SDS011;69234;47.446;21.636;2023-04-15T02:01:46;8.97;;;8.83;;
79751;SDS011;69234;47.446;21.636;2023-04-15T02:02:16;9.17;;;8.97;;
79751;SDS011;69234;47.446;21.636;2023-04-15T02:02:47;8.97;;;8.73;;
79751;SDS011;69234;47.446;21.636;2023-04-15T02:03:18;8.87;;;8.60;;
79751;SDS011;69234;47.446;21.636;2023-04-15T02:03:49;9.23;;;8.97;;
79751;SDS011;69234;47.446;21.636;2023-04-15T02:04:20;9.53;;;9.17;;
79751;SDS011;69234;47.446;21.636;2023-04-15T02:04:50;9.13;;;9.00;;
79751;SDS011;69234;47.446;21.636;2023-04-15T02:05:22;10.30;;;9.87;;
79751;SDS011;69234;47.446;21.636;2023-04-15T02:05:53;10.27;;;10.13;;
79751;SDS011;69234;47.446;21.636;2023-04-15T02:06:24;10.03;;;10.03;;
79751;SDS011;69234;47.446;21.636;2023-04-15T02:06:59;10.20;;;10.03;;
79751;SDS011;69234;47.446;21.636;2023-04-15T02:07:29;10.13;;;10.13;;
79751;SDS011;69234;47.446;21.636;2023-04-15T02:08:01;11.10;;;11.10;;
79751;SDS011;69234;47.446;21.636;2023-04-15T02:08:33;10.73;;;10.73;;
79751;SDS011;69234;47.446;21.636;2023-04-15T02:09:03;10.07;;;10.07;;
79751;SDS011;69234;47.446;21.636;2023-04-15T02:09:34;10.27;;;10.27;;
79751;SDS011;69234;47.446;21.636;2023-04-15T02:10:05;10.77;;;10.77;;
79751;SDS011;69234;47.446;21.636;2023-04-15T02:10:38;10.37;;;10.37;;
79751;SDS011;69234;47.446;21.636;2023-04-15T02:11:09;10.13;;;10.13;;
79751;SDS011;69234;47.446;21.636;2023-04-15T02:11:40;10.10;;;10.10;;
79751;SDS011;69234;47.446;21.636;2023-04-15T02:12:11;10.17;;;10.17;;
79751;SDS011;69234;47.446;21.636;2023-04-15T02:12:42;10.63;;;10.60;;
79751;SDS011;69234;47.446;21.636;2023-04-15T02:13:13;10.33;;;10.33;;
79751;SDS011;69234;47.446;21.636;2023-04-15T02:13:44;9.30;;;9.27;;
79751;SDS011;69234;47.446;21.636;2023-04-15T02:14:15;9.27;;;9.27;;
79751;SDS011;69234;47.446;21.636;2023-04-15T02:14:46;9.30;;;9.30;;
79751;SDS011;69234;47.446;21.636;2023-04-15T02:15:17;10.20;;;10.20;;
79751;SDS011;69234;47.446;21.636;2023-04-15T02:15:48;9.93;;;9.93;;
79751;SDS011;69234;47.446;21.636;2023-04-15T02:16:22;9.53;;;9.53;;
79751;SDS011;69234;47.446;21.636;2023-04-15T02:16:53;9.97;;;9.97;;
79751;SDS011;69234;47.446;21.636;2023-04-15T02:17:24;9.67;;;9.67;;
79751;SDS011;69234;47.446;21.636;2023-04-15T02:17:55;9.77;;;9.77;;
79751;SDS011;69234;47.446;21.636;2023-04-15T02:18:26;9.27;;;9.23;;
79751;SDS011;69234;47.446;21.636;2023-04-15T02:18:57;9.60;;;9.60;;
79751;SDS011;69234;47.446;21.636;2023-04-15T02:19:28;9.43;;;9.43;;
79751;SDS011;69234;47.446;21.636;2023-04-15T02:19:59;9.47;;;9.47;;
79751;SDS011;69234;47.446;21.636;2023-04-15T02:20:30;9.50;;;9.50;;
79751;SDS011;69234;47.446;21.636;2023-04-15T02:21:01;9.37;;;9.37;;
79751;SDS011;69234;47.446;21.636;2023-04-15T02:21:35;9.57;;;9.57;;
79751;SDS011;69234;47.446;21.636;2023-04-15T02:22:06;10.23;;;10.23;;
79751;SDS011;69234;47.446;21.636;2023-04-15T02:22:38;9.57;;;9.57;;
79751;SDS011;69234;47.446;21.636;2023-04-15T02:23:09;9.10;;;9.10;;
79751;SDS011;69234;47.446;21.636;2023-04-15T02:23:40;10.70;;;10.70;;
79751;SDS011;69234;47.446;21.636;2023-04-15T02:24:11;12.47;;;12.43;;
79751;SDS011;69234;47.446;21.636;2023-04-15T02:24:44;14.13;;;13.83;;
79751;SDS011;69234;47.446;21.636;2023-04-15T02:25:16;13.47;;;13.07;;
79751;SDS011;69234;47.446;21.636;2023-04-15T02:25:46;12.97;;;12.50;;
79751;SDS011;69234;47.446;21.636;2023-04-15T02:26:17;12.37;;;11.93;;
79751;SDS011;69234;47.446;21.636;2023-04-15T02:26:48;12.23;;;11.90;;
79751;SDS011;69234;47.446;21.636;2023-04-15T02:27:19;12.50;;;12.40;;
79751;SDS011;69234;47.446;21.636;2023-04-15T02:27:50;11.40;;;11.37;;
79751;SDS011;69234;47.446;21.636;2023-04-15T02:28:20;11.87;;;11.70;;
79751;SDS011;69234;47.446;21.636;2023-04-15T02:28:51;12.70;;;12.30;;
79751;SDS011;69234;47.446;21.636;2023-04-15T02:29:22;11.73;;;11.30;;
79751;SDS011;69234;47.446;21.636;2023-04-15T02:29:53;11.97;;;11.53;;
79751;SDS011;69234;47.446;21.636;2023-04-15T02:30:23;11.70;;;11.57;;
79751;SDS011;69234;47.446;21.636;2023-04-15T02:30:55;11.07;;;11.07;;
79751;SDS011;69234;47.446;21.636;2023-04-15T02:31:28;10.87;;;10.87;;
79751;SDS011;69234;47.446;21.636;2023-04-15T02:31:59;10.80;;;10.70;;
79751;SDS011;69234;47.446;21.636;2023-04-15T02:32:31;10.37;;;10.10;;
79751;SDS011;69234;47.446;21.636;2023-04-15T02:33:02;9.83;;;9.53;;
79751;SDS011;69234;47.446;21.636;2023-04-15T02:33:32;9.87;;;9.87;;
79751;SDS011;69234;47.446;21.636;2023-04-15T02:34:04;9.90;;;9.90;;
79751;SDS011;69234;47.446;21.636;2023-04-15T02:34:34;9.17;;;9.17;;
79751;SDS011;69234;47.446;21.636;2023-04-15T02:35:07;9.37;;;9.37;;
79751;SDS011;69234;47.446;21.636;2023-04-15T02:35:38;10.03;;;10.00;;
79751;SDS011;69234;47.446;21.636;2023-04-15T02:36:11;9.97;;;9.63;;
79751;SDS011;69234;47.446;21.636;2023-04-15T02:36:42;9.67;;;9.50;;
79751;SDS011;69234;47.446;21.636;2023-04-15T02:37:13;9.50;;;9.50;;
79751;SDS011;69234;47.446;21.636;2023-04-15T02:37:44;9.20;;;9.20;;
79751;SDS011;69234;47.446;21.636;2023-04-15T02:38:15;9.57;;;9.57;;
79751;SDS011;69234;47.446;21.636;2023-04-15T02:38:47;9.90;;;9.90;;
79751;SDS011;69234;47.446;21.636;2023-04-15T02:39:19;10.17;;;10.17;;
79751;SDS011;69234;47.446;21.636;2023-04-15T02:39:50;10.60;;;10.60;;
79751;SDS011;69234;47.446;21.636;2023-04-15T02:40:21;10.57;;;10.57;;
79751;SDS011;69234;47.446;21.636;2023-04-15T02:40:52;10.63;;;10.63;;
79751;SDS011;69234;47.446;21.636;2023-04-15T02:41:23;10.83;;;10.83;;
79751;SDS011;69234;47.446;21.636;2023-04-15T02:41:56;10.87;;;10.83;;
79751;SDS011;69234;47.446;21.636;2023-04-15T02:42:29;11.30;;;11.10;;
79751;SDS011;69234;47.446;21.636;2023-04-15T02:43:03;11.27;;;11.20;;
79751;SDS011;69234;47.446;21.636;2023-04-15T02:43:37;11.63;;;11.53;;
79751;SDS011;69234;47.446;21.636;2023-04-15T02:44:09;11.93;;;11.93;;
79751;SDS011;69234;47.446;21.636;2023-04-15T02:44:42;11.37;;;11.37;;
79751;SDS011;69234;47.446;21.636;2023-04-15T02:45:14;11.70;;;11.70;;
79751;SDS011;69234;47.446;21.636;2023-04-15T02:45:46;11.33;;;11.33;;
79751;SDS011;69234;47.446;21.636;2023-04-15T02:46:17;11.17;;;11.17;;
79751;SDS011;69234;47.446;21.636;2023-04-15T02:46:48;11.20;;;11.20;;
79751;SDS011;69234;47.446;21.636;2023-04-15T02:47:21;12.03;;;12.03;;
79751;SDS011;69234;47.446;21.636;2023-04-15T02:47:52;11.60;;;11.60;;
79751;SDS011;69234;47.446;21.636;2023-04-15T02:48:24;11.13;;;11.13;;
79751;SDS011;69234;47.446;21.636;2023-04-15T02:48:55;10.63;;;10.63;;
79751;SDS011;69234;47.446;21.636;2023-04-15T02:49:27;10.87;;;10.87;;
79751;SDS011;69234;47.446;21.636;2023-04-15T02:50:00;11.90;;;11.90;;
79751;SDS011;69234;47.446;21.636;2023-04-15T02:50:34;12.30;;;12.30;;
79751;SDS011;69234;47.446;21.636;2023-04-15T02:51:10;11.97;;;11.97;;
79751;SDS011;69234;47.446;21.636;2023-04-15T02:51:45;12.00;;;12.00;;
79751;SDS011;69234;47.446;21.636;2023-04-15T02:52:20;12.17;;;12.17;;
79751;SDS011;69234;47.446;21.636;2023-04-15T02:52:51;11.73;;;11.73;;
79751;SDS011;69234;47.446;21.636;2023-04-15T02:53:21;11.73;;;11.73;;
79751;SDS011;69234;47.446;21.636;2023-04-15T02:53:52;10.97;;;10.97;;
79751;SDS011;69234;47.446;21.636;2023-04-15T02:54:23;11.80;;;11.80;;
79751;SDS011;69234;47.446;21.636;2023-04-15T02:54:57;11.77;;;11.77;;
79751;SDS011;69234;47.446;21.636;2023-04-15T02:55:31;11.67;;;11.67;;
79751;SDS011;69234;47.446;21.636;2023-04-15T02:56:02;12.03;;;12.03;;
79751;SDS011;69234;47.446;21.636;2023-04-15T02:56:33;11.63;;;11.63;;
79751;SDS011;69234;47.446;21.636;2023-04-15T02:57:04;11.43;;;11.43;;
79751;SDS011;69234;47.446;21.636;2023-04-15T02:57:36;11.23;;;11.23;;
79751;SDS011;69234;47.446;21.636;2023-04-15T02:58:10;11.13;;;11.13;;
79751;SDS011;69234;47.446;21.636;2023-04-15T02:58:42;11.53;;;11.53;;
79751;SDS011;69234;47.446;21.636;2023-04-15T02:59:14;11.27;;;11.27;;
79751;SDS011;69234;47.446;21.636;2023-04-15T02:59:45;11.33;;;11.33;;
79751;SDS011;69234;47.446;21.636;2023-04-15T03:00:15;11.37;;;11.37;;
79751;SDS011;69234;47.446;21.636;2023-04-15T03:00:49;11.53;;;11.53;;
79751;SDS011;69234;47.446;21.636;2023-04-15T03:01:21;11.37;;;11.37;;
79751;SDS011;69234;47.446;21.636;2023-04-15T03:01:51;11.40;;;11.40;;
79751;SDS011;69234;47.446;21.636;2023-04-15T03:02:22;11.47;;;11.47;;
79751;SDS011;69234;47.446;21.636;2023-04-15T03:02:57;11.60;;;11.60;;
79751;SDS011;69234;47.446;21.636;2023-04-15T03:03:35;10.73;;;10.73;;
79751;SDS011;69234;47.446;21.636;2023-04-15T03:04:06;11.43;;;11.43;;
79751;SDS011;69234;47.446;21.636;2023-04-15T03:04:38;12.53;;;12.53;;
79751;SDS011;69234;47.446;21.636;2023-04-15T03:05:12;11.70;;;11.70;;
79751;SDS011;69234;47.446;21.636;2023-04-15T03:05:49;10.63;;;10.63;;